Time;durP1;ratioP1;P1;durP2;ratioP2;P2;SDS_P1;SDS_P2;PMS_P1;PMS_P2;Temp;Humidity;BMP_temperature;BMP_pressure;BME280_temperature;BME280_humidity;BME280_pressure;Samples;Min_cycle;Max_cycle;Signal;HPM_P1;HPM_P2
2023/07/28 00:04:06;;;;;;;;;;;;;;;21.81;46.33;95102.78;10446048;28;1873;-72
2023/07/28 00:09:07;;;;;;;;;;;;;;;21.80;46.64;95095.91;10441210;28;1957;-72
2023/07/28 00:14:07;;;;;;;;;;;;;;;21.81;46.47;95094.03;10442535;28;1889;-72
2023/07/28 00:19:07;;;;;;;;;;;;;;;21.80;46.78;95095.13;10448365;28;1942;-72
2023/07/28 00:24:07;;;;;;;;;;;;;;;21.80;46.45;95085.34;10441117;28;1914;-72
2023/07/28 00:29:08;;;;;;;;;;;;;;;21.78;46.65;95084.88;10442171;28;2148;-72
2023/07/28 00:34:08;;;;;;;;;;;;;;;21.78;46.49;95078.81;10444249;28;2147;-72
2023/07/28 00:39:08;;;;;;;;;;;;;;;21.78;46.67;95076.19;10446589;28;2538;-73
2023/07/28 00:44:09;;;;;;;;;;;;;;;21.78;46.85;95076.94;10443792;28;1989;-73
2023/07/28 00:49:09;;;;;;;;;;;;;;;21.78;46.79;95076.19;10440206;28;2072;-71
2023/07/28 00:54:09;;;;;;;;;;;;;;;21.78;46.82;95073.56;10438230;28;2007;-71
2023/07/28 00:59:09;;;;;;;;;;;;;;;21.77;46.75;95078.03;10457327;28;2030;-71
2023/07/28 01:04:10;;;;;;;;;;;;;;;21.77;46.54;95077.25;10440983;28;1935;-71
2023/07/28 01:09:12;;;;;;;;;;;;;;;21.77;46.66;95085.97;10441717;28;1933;-71
2023/07/28 01:14:12;;;;;;;;;;;;;;;21.76;47.06;95083.63;10442512;28;1955;-72
2023/07/28 01:19:13;;;;;;;;;;;;;;;21.76;46.96;95086.25;10445843;28;2006;-72
2023/07/28 01:24:32;;;;;;;;;;;;;;;21.75;46.67;95089.97;10442219;28;1974;-72
2023/07/28 01:29:33;;;;;;;;;;;;;;;21.75;46.62;95082.03;10441938;28;2007;-71
2023/07/28 01:34:33;;;;;;;;;;;;;;;21.73;46.93;95081.56;10440117;28;2046;-71
2023/07/28 01:39:33;;;;;;;;;;;;;;;21.73;46.89;95076.28;10446217;28;4501;-71
2023/07/28 01:44:34;;;;;;;;;;;;;;;21.72;46.97;95080.03;10442798;28;1959;-72
2023/07/28 01:49:34;;;;;;;;;;;;;;;21.72;46.98;95080.03;10442189;28;1964;-71
2023/07/28 01:54:34;;;;;;;;;;;;;;;21.71;46.63;95075.81;10438736;28;1953;-73
2023/07/28 01:59:34;;;;;;;;;;;;;;;21.70;46.59;95079.53;10443054;28;1932;-71
2023/07/28 02:04:35;;;;;;;;;;;;;;;21.68;46.58;95071.09;10440213;28;2057;-71
2023/07/28 02:09:35;;;;;;;;;;;;;;;21.68;46.84;95081.66;10465159;28;1950;-71
2023/07/28 02:14:35;;;;;;;;;;;;;;;21.66;46.71;95079.31;10436453;28;1916;-71
2023/07/28 02:19:35;;;;;;;;;;;;;;;21.66;46.55;95078.53;10442775;28;1975;-70
2023/07/28 02:24:36;;;;;;;;;;;;;;;21.65;46.39;95077.00;10444137;28;1913;-71
2023/07/28 02:29:36;;;;;;;;;;;;;;;21.65;46.24;95090.19;10439888;28;2469;-71
2023/07/28 02:34:36;;;;;;;;;;;;;;;21.63;46.59;95077.28;10433915;28;2314;-70
2023/07/28 02:39:36;;;;;;;;;;;;;;;21.64;46.56;95080.69;10437536;28;4380;-70
2023/07/28 02:44:37;;;;;;;;;;;;;;;21.62;46.60;95069.66;10437623;28;2282;-71
2023/07/28 02:49:37;;;;;;;;;;;;;;;21.61;46.53;95076.03;10441387;28;1934;-71
2023/07/28 02:54:37;;;;;;;;;;;;;;;21.61;46.23;95076.03;10437047;28;1971;-70
2023/07/28 02:59:37;;;;;;;;;;;;;;;21.60;46.53;95077.09;10440274;28;2167;-70
2023/07/28 03:04:38;;;;;;;;;;;;;;;21.59;46.21;95070.25;10437533;28;1884;-72
2023/07/28 03:09:38;;;;;;;;;;;;;;;21.58;46.15;95068.69;10436339;28;1924;-72
2023/07/28 03:14:38;;;;;;;;;;;;;;;21.58;46.26;95068.69;10435688;28;2020;-72
2023/07/28 03:19:39;;;;;;;;;;;;;;;21.56;46.13;95076.13;10437231;28;1999;-71
2023/07/28 03:24:39;;;;;;;;;;;;;;;21.56;46.24;95078.75;10447589;28;1913;-71
2023/07/28 03:29:39;;;;;;;;;;;;;;;21.55;46.30;95074.56;10447838;28;2281;-72
2023/07/28 03:34:40;;;;;;;;;;;;;;;21.54;46.15;95083.53;10439247;28;2195;-72
2023/07/28 03:39:40;;;;;;;;;;;;;;;21.53;46.03;95076.72;10443167;28;4530;-71
2023/07/28 03:44:41;;;;;;;;;;;;;;;21.52;46.34;95088.31;10444679;28;1955;-71
2023/07/28 03:49:41;;;;;;;;;;;;;;;21.52;45.90;95080.41;10443600;28;1958;-71
2023/07/28 03:54:42;;;;;;;;;;;;;;;21.51;46.16;95084.16;10446398;28;1977;-72
2023/07/28 03:59:42;;;;;;;;;;;;;;;21.50;46.10;95072.03;10445736;28;2020;-72
2023/07/28 04:04:42;;;;;;;;;;;;;;;21.50;46.20;95083.34;10442026;28;2025;-72
2023/07/28 04:09:42;;;;;;;;;;;;;;;21.49;46.04;95070.47;10445675;28;1951;-71
2023/07/28 04:14:43;;;;;;;;;;;;;;;21.50;46.27;95075.44;10448077;28;1971;-71
2023/07/28 04:19:43;;;;;;;;;;;;;;;21.49;46.44;95073.91;10443908;28;2002;-71
2023/07/28 04:24:43;;;;;;;;;;;;;;;21.49;46.39;95083.66;10436756;28;2276;-72
2023/07/28 04:29:44;;;;;;;;;;;;;;;21.50;46.07;95088.63;10441758;28;1963;-71
2023/07/28 04:34:44;;;;;;;;;;;;;;;21.50;46.16;95080.72;10446323;28;1932;-70
2023/07/28 04:39:44;;;;;;;;;;;;;;;21.51;46.50;95087.56;10445397;28;4375;-71
2023/07/28 04:44:46;;;;;;;;;;;;;;;21.52;46.47;95085.69;10443906;28;2206;-71
2023/07/28 04:49:46;;;;;;;;;;;;;;;21.52;46.63;95080.41;10445714;28;2116;-71
2023/07/28 04:54:46;;;;;;;;;;;;;;;21.52;46.75;95096.25;10446041;28;1963;-71
2023/07/28 04:59:47;;;;;;;;;;;;;;;21.53;46.72;95093.34;10448880;28;1956;-71
2023/07/28 05:04:47;;;;;;;;;;;;;;;21.54;46.69;95102.00;10443282;28;2026;-71
2023/07/28 05:09:47;;;;;;;;;;;;;;;21.56;46.58;95118.31;10471288;28;1931;-70
2023/07/28 05:14:47;;;;;;;;;;;;;;;21.56;46.71;95107.75;10441473;28;2124;-71
2023/07/28 05:19:49;;;;;;;;;;;;;;;21.56;46.94;95111.19;10441548;28;2305;-71
2023/07/28 05:24:49;;;;;;;;;;;;;;;21.57;46.85;95119.88;10437988;28;2150;-70
2023/07/28 05:29:49;;;;;;;;;;;;;;;21.57;46.98;95120.66;10438472;28;2152;-71
2023/07/28 05:34:50;;;;;;;;;;;;;;;21.58;47.23;95113.53;10440800;28;1943;-72
2023/07/28 05:39:50;;;;;;;;;;;;;;;21.58;47.29;95122.22;10442117;28;1988;-71
2023/07/28 05:44:52;;;;;;;;;;;;;;;21.60;47.22;95127.19;10437213;28;1967;-71
2023/07/28 05:49:53;;;;;;;;;;;;;;;21.60;47.00;95138.53;10442705;28;1947;-72
2023/07/28 05:54:54;;;;;;;;;;;;;;;21.61;46.81;95145.38;10437179;28;1915;-72
2023/07/28 05:59:54;;;;;;;;;;;;;;;21.62;46.71;95140.88;10442879;28;2008;-72
2023/07/28 06:04:55;;;;;;;;;;;;;;;21.62;46.84;95143.50;10432585;28;1958;-72
2023/07/28 06:09:55;;;;;;;;;;;;;;;21.63;46.89;95161.69;10438020;28;1979;-67
2023/07/28 06:14:55;;;;;;;;;;;;;;;21.63;46.52;95150.34;10439051;28;2203;-76
2023/07/28 06:19:55;;;;;;;;;;;;;;;21.64;46.81;95159.81;10438490;28;1955;-74
2023/07/28 06:24:56;;;;;;;;;;;;;;;21.65;46.50;95172.72;10433054;28;1846;-70
2023/07/28 06:29:56;;;;;;;;;;;;;;;21.65;46.94;95174.59;10435694;28;1987;-70
2023/07/28 06:34:57;;;;;;;;;;;;;;;21.66;46.82;95176.13;10432119;28;1981;-71
2023/07/28 06:39:57;;;;;;;;;;;;;;;21.66;46.85;95184.84;10442948;28;1923;-70
2023/07/28 06:44:58;;;;;;;;;;;;;;;21.66;46.46;95187.47;10437963;28;2210;-69
2023/07/28 06:49:58;;;;;;;;;;;;;;;21.67;46.91;95194.31;10436468;28;2156;-72
2023/07/28 06:54:58;;;;;;;;;;;;;;;21.69;46.89;95196.66;10435389;28;2003;-70
2023/07/28 07:00:00;;;;;;;;;;;;;;;21.70;46.57;95195.59;10435585;28;1975;-71
2023/07/28 07:05:00;;;;;;;;;;;;;;;21.73;47.10;95197.63;10436377;28;2184;-67
2023/07/28 07:10:00;;;;;;;;;;;;;;;21.74;47.10;95193.94;10442226;28;2234;-67
2023/07/28 07:15:00;;;;;;;;;;;;;;;21.74;46.95;95199.97;10438202;28;2464;-71
2023/07/28 07:20:01;;;;;;;;;;;;;;;21.75;47.09;95187.56;10431536;28;2027;-73
2023/07/28 07:25:01;;;;;;;;;;;;;;;21.76;46.96;95186.50;10433752;28;2010;-70
2023/07/28 07:30:02;;;;;;;;;;;;;;;21.75;46.86;95180.44;10439369;28;2075;-70
2023/07/28 07:35:04;;;;;;;;;;;;;;;21.78;46.99;95189.63;10437271;28;2030;-72
2023/07/28 07:40:06;;;;;;;;;;;;;;;21.77;46.86;95183.56;10440778;28;4530;-72
2023/07/28 07:45:07;;;;;;;;;;;;;;;21.78;46.88;95197.53;10434043;28;1868;-72
2023/07/28 07:50:08;;;;;;;;;;;;;;;21.79;46.66;95185.91;10436650;28;2191;-71
2023/07/28 07:55:10;;;;;;;;;;;;;;;21.79;46.75;95185.91;10425875;28;1882;-72
2023/07/28 08:00:10;;;;;;;;;;;;;;;21.79;46.95;95193.81;10433754;28;1992;-70
2023/07/28 08:05:11;;;;;;;;;;;;;;;21.80;46.77;95198.03;10428843;28;1959;-71
2023/07/28 08:10:11;;;;;;;;;;;;;;;21.80;47.03;95198.03;10436538;28;2237;-71
2023/07/28 08:15:11;;;;;;;;;;;;;;;21.81;46.88;95207.50;10443782;28;1952;-70
2023/07/28 08:20:12;;;;;;;;;;;;;;;21.81;46.92;95205.69;10441123;28;2001;-70
2023/07/28 08:25:12;;;;;;;;;;;;;;;21.81;46.93;95204.84;10447778;28;1807;-70
2023/07/28 08:30:13;;;;;;;;;;;;;;;21.81;46.80;95210.94;10443693;28;1846;-69
2023/07/28 08:35:13;;;;;;;;;;;;;;;21.82;46.90;95209.88;10442813;28;1870;-70
2023/07/28 08:40:14;;;;;;;;;;;;;;;21.83;47.11;95208.00;10450236;28;4576;-73
2023/07/28 08:45:14;;;;;;;;;;;;;;;21.82;47.21;95204.59;10442610;28;1918;-70
2023/07/28 08:50:14;;;;;;;;;;;;;;;21.85;47.62;95205.84;10465672;28;1833;-71
2023/07/28 08:55:15;;;;;;;;;;;;;;;21.86;47.70;95207.44;10440700;28;1862;-71
2023/07/28 09:00:17;;;;;;;;;;;;;;;21.86;47.68;95208.19;10440312;28;1973;-69
2023/07/28 09:05:20;;;;;;;;;;;;;;;21.88;47.54;95201.84;10436013;28;2212;-68
2023/07/28 09:10:21;;;;;;;;;;;;;;;21.89;47.94;95212.13;10466011;28;1921;-70
2023/07/28 09:15:21;;;;;;;;;;;;;;;21.90;48.18;95213.69;10444747;28;1794;-69
2023/07/28 09:20:21;;;;;;;;;;;;;;;21.91;47.92;95212.59;10440909;28;1979;-69
2023/07/28 09:25:21;;;;;;;;;;;;;;;21.93;47.84;95222.88;10439593;28;1941;-70
2023/07/28 09:30:22;;;;;;;;;;;;;;;21.92;48.24;95221.31;10439627;28;1822;-68
2023/07/28 09:35:23;;;;;;;;;;;;;;;21.91;48.16;95217.88;10435252;28;1893;-71
2023/07/28 09:40:23;;;;;;;;;;;;;;;21.92;48.08;95214.19;10436931;28;4513;-68
2023/07/28 09:45:23;;;;;;;;;;;;;;;21.94;48.00;95224.44;10439692;28;1949;-68
2023/07/28 09:50:23;;;;;;;;;;;;;;;21.93;48.23;95223.63;10440996;28;1874;-71
2023/07/28 09:55:24;;;;;;;;;;;;;;;21.94;48.34;95217.31;10440214;28;1881;-71
2023/07/28 10:00:24;;;;;;;;;;;;;;;21.94;48.47;95209.38;10441034;28;1934;-71
2023/07/28 10:05:25;;;;;;;;;;;;;;;21.95;48.26;95205.66;10439032;28;1915;-69
2023/07/28 10:10:26;;;;;;;;;;;;;;;21.97;48.53;95202.75;10434999;28;2161;-69
2023/07/28 10:15:27;;;;;;;;;;;;;;;21.97;48.61;95206.13;10434478;28;2066;-68
2023/07/28 10:20:30;;;;;;;;;;;;;;;21.98;48.60;95207.72;10444575;28;1949;-67
2023/07/28 10:25:35;;;;;;;;;;;;;;;21.98;48.39;95207.72;10433937;28;2022;-69
2023/07/28 10:30:38;;;;;;;;;;;;;;;21.99;48.61;95208.50;10433948;28;1858;-69
2023/07/28 10:35:39;;;;;;;;;;;;;;;22.00;48.74;95212.69;10427724;28;2049;-68
2023/07/28 10:40:39;;;;;;;;;;;;;;;21.99;48.75;95209.25;10464765;28;4822;-67
2023/07/28 10:45:39;;;;;;;;;;;;;;;22.00;48.72;95213.47;10435708;28;1894;-67
2023/07/28 10:50:40;;;;;;;;;;;;;;;22.01;48.81;95232.75;10426110;28;1881;-66
2023/07/28 10:55:40;;;;;;;;;;;;;;;22.02;49.03;95221.88;10430503;28;1898;-69
2023/07/28 11:00:41;;;;;;;;;;;;;;;22.03;49.44;95231.34;10435421;28;1910;-68
2023/07/28 11:05:41;;;;;;;;;;;;;;;22.05;49.41;95231.84;10432638;28;1830;-67
2023/07/28 11:10:42;;;;;;;;;;;;;;;22.06;49.07;95227.34;10432187;28;1868;-68
2023/07/28 11:15:42;;;;;;;;;;;;;;;22.06;49.41;95233.41;10431835;28;1956;-67
2023/07/28 11:20:42;;;;;;;;;;;;;;;22.08;49.51;95219.91;10451251;28;2001;-71
2023/07/28 11:25:44;;;;;;;;;;;;;;;22.07;49.08;95227.03;10424983;28;1870;-70
2023/07/28 11:30:44;;;;;;;;;;;;;;;22.09;48.95;95230.16;10434807;28;1863;-70
2023/07/28 11:35:44;;;;;;;;;;;;;;;22.07;49.18;95218.38;10446874;28;1898;-73
2023/07/28 11:40:44;;;;;;;;;;;;;;;22.09;49.20;95226.78;10422317;28;4868;-69
2023/07/28 11:45:45;;;;;;;;;;;;;;;22.09;49.34;95232.06;10440323;28;1835;-73
2023/07/28 11:50:45;;;;;;;;;;;;;;;22.08;49.02;95218.06;10435591;28;1865;-71
2023/07/28 11:55:46;;;;;;;;;;;;;;;22.10;49.29;95231.75;10438904;28;2376;-73
2023/07/28 12:00:46;;;;;;;;;;;;;;;22.10;49.48;95237.03;10437434;28;1910;-77
2023/07/28 12:06:05;;;;;;;;;;;;;;;22.11;49.34;95227.25;10435825;28;1857;-71
2023/07/28 12:11:06;;;;;;;;;;;;;;;22.10;49.32;95221.19;10469161;28;1845;-69
2023/07/28 12:16:06;;;;;;;;;;;;;;;22.12;49.39;95210.31;10441420;28;1879;-71
2023/07/28 12:21:06;;;;;;;;;;;;;;;22.12;49.47;95211.13;10470641;28;1982;-73
2023/07/28 12:26:07;;;;;;;;;;;;;;;22.13;49.46;95220.63;10437923;28;1883;-71
2023/07/28 12:31:07;;;;;;;;;;;;;;;22.13;49.25;95220.63;10436899;28;1997;-73
2023/07/28 12:36:07;;;;;;;;;;;;;;;22.14;49.35;95224.81;10438254;28;4634;-71
2023/07/28 12:41:08;;;;;;;;;;;;;;;22.15;49.70;95218.47;10457896;28;1984;-70
2023/07/28 12:46:09;;;;;;;;;;;;;;;22.15;49.55;95222.94;10439697;28;1873;-69
2023/07/28 12:51:09;;;;;;;;;;;;;;;22.39;48.82;95226.13;10432622;28;2287;-72
2023/07/28 12:56:10;;;;;;;;;;;;;;;22.39;48.96;95221.63;10440138;28;1942;-69
2023/07/28 13:01:11;;;;;;;;;;;;;;;22.47;48.75;95218.28;10438211;28;1944;-73
2023/07/28 13:06:12;;;;;;;;;;;;;;;22.40;48.52;95212.63;10442584;28;1833;-67
2023/07/28 13:11:14;;;;;;;;;;;;;;;22.35;48.65;95211.94;10447591;28;1829;-69
2023/07/28 13:16:14;;;;;;;;;;;;;;;22.32;48.58;95215.16;10438436;28;1954;-73
2023/07/28 13:21:14;;;;;;;;;;;;;;;22.28;49.05;95220.28;10457517;28;1938;-72
2023/07/28 13:26:15;;;;;;;;;;;;;;;22.28;48.84;95232.69;10442013;28;1905;-73
2023/07/28 13:31:15;;;;;;;;;;;;;;;22.26;49.06;95237.47;10474398;28;1743;-73
2023/07/28 13:36:16;;;;;;;;;;;;;;;22.24;49.01;95237.78;10440515;28;4557;-72
2023/07/28 13:41:16;;;;;;;;;;;;;;;22.24;49.22;95235.16;10443387;28;1910;-72
2023/07/28 13:46:16;;;;;;;;;;;;;;;22.24;48.94;95234.34;10467702;28;2388;-72
2023/07/28 13:51:16;;;;;;;;;;;;;;;22.23;49.15;95238.09;10442298;28;1908;-72
2023/07/28 13:56:17;;;;;;;;;;;;;;;22.22;49.31;95245.22;10437306;28;1893;-72
2023/07/28 14:01:17;;;;;;;;;;;;;;;22.23;49.15;95248.66;10456861;28;1906;-71
2023/07/28 14:06:17;;;;;;;;;;;;;;;22.21;49.31;95254.22;10433207;28;1873;-71
2023/07/28 14:11:17;;;;;;;;;;;;;;;22.20;49.12;95260.56;10434302;28;1904;-72
2023/07/28 14:16:18;;;;;;;;;;;;;;;22.19;49.16;95259.03;10442351;28;1890;-73
2023/07/28 14:21:18;;;;;;;;;;;;;;;22.20;49.34;95265.06;10443078;28;2005;-72
2023/07/28 14:26:18;;;;;;;;;;;;;;;22.19;49.26;95272.22;10467134;28;1920;-72
2023/07/28 14:31:18;;;;;;;;;;;;;;;22.19;49.16;95288.06;10441551;28;1929;-72
2023/07/28 14:36:19;;;;;;;;;;;;;;;22.18;49.16;95283.84;10471576;28;4608;-71
2023/07/28 14:41:19;;;;;;;;;;;;;;;22.19;49.08;95282.78;10441553;28;2203;-72
2023/07/28 14:46:22;;;;;;;;;;;;;;;22.19;49.20;95266.16;10470793;28;1854;-72
2023/07/28 14:51:22;;;;;;;;;;;;;;;22.18;49.36;95273.28;10441072;28;1877;-72
2023/07/28 14:56:24;;;;;;;;;;;;;;;22.18;49.48;95254.81;10435201;28;1798;-72
2023/07/28 15:01:24;;;;;;;;;;;;;;;22.18;49.24;95241.59;10436075;28;1976;-71
2023/07/28 15:06:25;;;;;;;;;;;;;;;22.18;49.28;95233.69;10444536;28;1865;-72
2023/07/28 15:11:25;;;;;;;;;;;;;;;22.19;49.33;95237.91;10476365;28;1893;-72
2023/07/28 15:16:25;;;;;;;;;;;;;;;22.20;49.34;95238.66;10448848;28;1892;-73
2023/07/28 15:21:27;;;;;;;;;;;;;;;22.20;49.26;95252.66;10447403;28;1898;-72
2023/07/28 15:26:27;;;;;;;;;;;;;;;22.20;49.54;95265.06;10449511;28;1874;-71
2023/07/28 15:31:27;;;;;;;;;;;;;;;22.20;49.41;95271.13;10463618;28;2008;-72
2023/07/28 15:36:27;;;;;;;;;;;;;;;22.21;49.37;95262.16;10441350;28;4632;-72
2023/07/28 15:41:28;;;;;;;;;;;;;;;22.20;49.31;95259.78;10446850;28;2443;-72
2023/07/28 15:46:28;;;;;;;;;;;;;;;22.21;49.31;95264.78;10452131;28;1873;-72
2023/07/28 15:51:28;;;;;;;;;;;;;;;22.20;49.46;95260.56;10451297;28;1949;-73
2023/07/28 15:56:28;;;;;;;;;;;;;;;22.22;49.36;95261.06;10471409;28;1864;-74
2023/07/28 16:01:29;;;;;;;;;;;;;;;22.21;49.32;95258.72;10445299;28;1971;-72
2023/07/28 16:06:29;;;;;;;;;;;;;;;22.21;49.22;95259.50;10447781;28;2044;-72
2023/07/28 16:11:29;;;;;;;;;;;;;;;22.21;49.36;95259.50;10447360;28;1903;-71
2023/07/28 16:16:29;;;;;;;;;;;;;;;22.22;49.46;95260.28;10440602;28;1945;-71
2023/07/28 16:21:30;;;;;;;;;;;;;;;22.22;49.17;95263.69;10444292;28;1882;-72
2023/07/28 16:26:30;;;;;;;;;;;;;;;22.23;49.09;95262.63;10440022;28;1919;-72
2023/07/28 16:31:30;;;;;;;;;;;;;;;22.22;49.38;95252.34;10441795;28;1951;-71
2023/07/28 16:36:31;;;;;;;;;;;;;;;22.21;49.36;95256.88;10444402;28;4501;-71
2023/07/28 16:41:31;;;;;;;;;;;;;;;22.22;49.44;95265.56;10472651;28;1910;-71
2023/07/28 16:46:31;;;;;;;;;;;;;;;22.21;49.27;95262.16;10471560;28;1883;-70
2023/07/28 16:51:31;;;;;;;;;;;;;;;22.22;49.51;95274.25;10442236;28;1893;-72
2023/07/28 16:56:32;;;;;;;;;;;;;;;22.22;49.39;95279.53;10445896;28;1963;-73
2023/07/28 17:01:32;;;;;;;;;;;;;;;22.23;49.33;95272.41;10449443;28;2230;-71
2023/07/28 17:06:32;;;;;;;;;;;;;;;22.24;49.53;95271.31;10446417;28;2120;-71
2023/07/28 17:11:32;;;;;;;;;;;;;;;22.23;49.66;95265.28;10440445;28;2056;-71
2023/07/28 17:16:33;;;;;;;;;;;;;;;22.25;49.85;95272.91;10446793;28;2148;-71
2023/07/28 17:21:33;;;;;;;;;;;;;;;22.24;49.72;95266.81;10440408;28;2054;-71
2023/07/28 17:26:33;;;;;;;;;;;;;;;22.25;49.95;95273.69;10447220;28;1858;-71
2023/07/28 17:31:33;;;;;;;;;;;;;;;22.26;49.81;95275.22;10467273;28;2415;-70
2023/07/28 17:36:34;;;;;;;;;;;;;;;22.25;49.92;95271.03;10467106;28;4513;-73
2023/07/28 17:41:34;;;;;;;;;;;;;;;22.25;49.98;95273.69;10441924;28;1980;-71
2023/07/28 17:46:34;;;;;;;;;;;;;;;22.25;50.12;95276.31;10441665;28;1874;-71
2023/07/28 17:51:35;;;;;;;;;;;;;;;22.26;49.91;95272.59;10442526;28;1959;-71
2023/07/28 17:56:35;;;;;;;;;;;;;;;22.24;49.86;95277.38;10445786;28;1866;-71
2023/07/28 18:01:35;;;;;;;;;;;;;;;22.24;50.16;95285.31;10441975;28;1981;-71
2023/07/28 18:06:37;;;;;;;;;;;;;;;22.26;49.83;95288.44;10444576;28;2102;-71
2023/07/28 18:11:37;;;;;;;;;;;;;;;22.26;50.29;95304.28;10479589;28;1873;-71
2023/07/28 18:16:37;;;;;;;;;;;;;;;22.25;50.31;95326.50;10443678;28;1915;-71
2023/07/28 18:21:39;;;;;;;;;;;;;;;22.28;51.06;95370.78;10472646;28;1985;-70
2023/07/28 18:26:40;;;;;;;;;;;;;;;22.34;50.78;95398.66;10451174;28;2286;-70
2023/07/28 18:31:41;;;;;;;;;;;;;;;22.39;50.90;95369.50;10443897;28;1500;-71
2023/07/28 18:36:42;;;;;;;;;;;;;;;22.42;50.89;95347.03;10444765;28;4612;-71
2023/07/28 18:41:42;;;;;;;;;;;;;;;22.46;50.30;95359.31;10447396;28;1910;-73
2023/07/28 18:46:42;;;;;;;;;;;;;;;22.49;50.38;95342.91;10442871;28;1549;-70
2023/07/28 18:51:42;;;;;;;;;;;;;;;22.52;50.81;95347.56;10448851;28;1464;-73
2023/07/28 18:56:45;;;;;;;;;;;;;;;22.56;50.49;95372.34;10444060;28;1524;-73
2023/07/28 19:01:45;;;;;;;;;;;;;;;22.58;50.01;95377.38;10448560;28;1997;-72
2023/07/28 19:06:45;;;;;;;;;;;;;;;22.59;50.29;95394.75;10437766;28;1350;-72
2023/07/28 19:11:45;;;;;;;;;;;;;;;22.60;49.98;95412.19;10446724;28;1515;-71
2023/07/28 19:16:46;;;;;;;;;;;;;;;22.62;49.83;95416.13;10441607;28;1512;-73
2023/07/28 19:21:47;;;;;;;;;;;;;;;22.63;50.11;95412.38;10456735;28;1910;-73
2023/07/28 19:26:48;;;;;;;;;;;;;;;22.64;49.92;95403.41;10451822;28;1406;-71
2023/07/28 19:31:49;;;;;;;;;;;;;;;22.64;49.81;95403.41;10443994;28;1452;-73
2023/07/28 19:36:49;;;;;;;;;;;;;;;22.64;49.76;95411.31;10451627;28;4540;-71
2023/07/28 19:41:49;;;;;;;;;;;;;;;22.66;49.85;95416.28;10444158;28;1906;-71
2023/07/28 19:46:50;;;;;;;;;;;;;;;22.67;49.67;95435.59;10472021;28;1503;-71
2023/07/28 19:51:50;;;;;;;;;;;;;;;22.65;49.78;95426.06;10448707;28;1503;-70
2023/07/28 19:56:50;;;;;;;;;;;;;;;22.67;49.52;95429.22;10448788;28;1528;-72
2023/07/28 20:01:51;;;;;;;;;;;;;;;22.67;49.64;95429.22;10442441;28;1910;-72
2023/07/28 20:06:51;;;;;;;;;;;;;;;22.67;49.74;95423.91;10449042;28;1436;-71
2023/07/28 20:11:51;;;;;;;;;;;;;;;22.67;49.42;95421.28;10469955;28;1456;-72
2023/07/28 20:16:52;;;;;;;;;;;;;;;22.69;49.54;95404.38;10461569;28;1528;-70
2023/07/28 20:21:52;;;;;;;;;;;;;;;22.69;49.70;95404.38;10445652;28;2442;-74
2023/07/28 20:26:52;;;;;;;;;;;;;;;22.69;49.75;95412.28;10490904;28;1434;-73
2023/07/28 20:31:52;;;;;;;;;;;;;;;22.70;49.36;95395.34;10454440;28;1493;-73
2023/07/28 20:36:53;;;;;;;;;;;;;;;22.69;49.38;95396.44;10445191;28;1456;-72
2023/07/28 20:41:53;;;;;;;;;;;;;;;22.70;49.35;95404.06;10452572;28;1970;-72
2023/07/28 20:46:53;;;;;;;;;;;;;;;22.69;49.29;95409.66;10451975;28;1431;-72
2023/07/28 20:51:54;;;;;;;;;;;;;;;22.70;49.50;95413.84;10451531;28;1474;-71
2023/07/28 20:56:54;;;;;;;;;;;;;;;22.70;49.33;95411.19;10448312;28;1539;-71
2023/07/28 21:01:54;;;;;;;;;;;;;;;22.71;49.20;95407.50;10437620;28;1911;-71
2023/07/28 21:06:54;;;;;;;;;;;;;;;22.71;49.40;95399.56;10436768;28;1897;-67
2023/07/28 21:11:55;;;;;;;;;;;;;;;22.71;49.49;95391.66;10445439;28;2105;-65
2023/07/28 21:16:56;;;;;;;;;;;;;;;22.68;49.34;95377.16;10440793;28;2136;-70
2023/07/28 21:21:56;;;;;;;;;;;;;;;22.65;49.25;95389.09;10434235;28;2041;-70
2023/07/28 21:26:56;;;;;;;;;;;;;;;22.64;49.29;95384.91;10439913;28;2006;-69
2023/07/28 21:31:56;;;;;;;;;;;;;;;22.62;49.48;95389.69;10439496;28;1958;-70
2023/07/28 21:36:57;;;;;;;;;;;;;;;22.61;49.81;95387.31;10435876;28;4509;-70
2023/07/28 21:41:58;;;;;;;;;;;;;;;22.59;49.79;95400.03;10438076;28;1910;-70
2023/07/28 21:46:58;;;;;;;;;;;;;;;22.57;49.81;95397.69;10441538;28;1794;-70
2023/07/28 21:51:58;;;;;;;;;;;;;;;22.55;50.09;95413.03;10441721;28;1889;-69
2023/07/28 21:57:00;;;;;;;;;;;;;;;22.53;50.45;95417.84;10436988;28;1886;-69
2023/07/28 22:02:00;;;;;;;;;;;;;;;22.51;50.76;95417.34;10440780;28;1938;-69
2023/07/28 22:07:01;;;;;;;;;;;;;;;22.51;50.83;95425.28;10443360;28;1835;-69
2023/07/28 22:12:01;;;;;;;;;;;;;;;22.50;50.98;95431.63;10437370;28;2284;-69
2023/07/28 22:17:01;;;;;;;;;;;;;;;22.48;51.22;95430.38;10440660;28;1908;-71
2023/07/28 22:22:01;;;;;;;;;;;;;;;22.47;51.14;95432.22;10438792;28;1953;-69
2023/07/28 22:27:02;;;;;;;;;;;;;;;22.45;51.13;95437.00;10436175;28;1898;-69
2023/07/28 22:32:02;;;;;;;;;;;;;;;22.45;51.17;95439.66;10434947;28;1901;-69
2023/07/28 22:37:03;;;;;;;;;;;;;;;22.44;51.10;95430.16;10438936;28;4568;-69
2023/07/28 22:42:03;;;;;;;;;;;;;;;22.43;51.30;95433.88;10437752;28;1961;-69
2023/07/28 22:47:03;;;;;;;;;;;;;;;22.43;51.54;95439.16;10439635;28;1877;-69
2023/07/28 22:52:04;;;;;;;;;;;;;;;22.43;51.53;95438.38;10439600;28;1933;-68
2023/07/28 22:57:05;;;;;;;;;;;;;;;22.43;51.53;95441.00;10437832;28;1866;-69
2023/07/28 23:02:05;;;;;;;;;;;;;;;22.41;51.62;95422.81;10439124;28;2005;-69
2023/07/28 23:07:05;;;;;;;;;;;;;;;22.41;51.39;95436.03;10435947;28;2217;-69
2023/07/28 23:12:06;;;;;;;;;;;;;;;22.40;51.50;95426.53;10435313;28;1909;-68
2023/07/28 23:17:06;;;;;;;;;;;;;;;22.41;51.46;95436.03;10435505;28;2085;-68
2023/07/28 23:22:06;;;;;;;;;;;;;;;22.39;51.29;95427.63;10430158;28;1918;-68
2023/07/28 23:27:07;;;;;;;;;;;;;;;22.39;51.14;95427.63;10437343;28;1956;-69
2023/07/28 23:32:07;;;;;;;;;;;;;;;22.40;50.97;95428.41;10433100;28;1888;-69
2023/07/28 23:37:07;;;;;;;;;;;;;;;22.38;51.17;95423.41;10441487;28;4530;-69
2023/07/28 23:42:07;;;;;;;;;;;;;;;22.39;51.03;95421.53;10448195;28;1915;-70
2023/07/28 23:47:08;;;;;;;;;;;;;;;22.38;50.83;95422.63;10442477;28;1904;-68
2023/07/28 23:52:08;;;;;;;;;;;;;;;22.36;50.85;95409.69;10444265;28;1905;-68
2023/07/28 23:57:08;;;;;;;;;;;;;;;22.36;51.16;95401.78;10447856;28;1886;-71
